createdAt,value
2022-08-21T00:01:55.428Z,67.34
2022-08-21T00:04:14.542Z,66.35
2022-08-21T00:06:38.071Z,66.88
2022-08-21T00:08:55.130Z,66.64
2022-08-21T00:11:12.299Z,67.32
2022-08-21T00:13:29.428Z,67.23
2022-08-21T00:15:46.763Z,67.36
2022-08-21T00:18:03.766Z,67.17
2022-08-21T00:20:21.777Z,67.54
2022-08-21T00:22:38.820Z,67.48
2022-08-21T00:24:56.835Z,67.82
2022-08-21T00:27:14.187Z,68.59
2022-08-21T00:29:32.194Z,68.10
2022-08-21T00:31:49.499Z,67.66
2022-08-21T00:34:06.633Z,69.08
2022-08-21T00:36:23.877Z,69.66
2022-08-21T00:38:41.170Z,68.33
2022-08-21T00:40:58.135Z,68.07
2022-08-21T00:43:17.321Z,69.19
2022-08-21T00:45:34.648Z,68.66
2022-08-21T00:47:51.784Z,69.35
2022-08-21T00:50:08.763Z,68.42
2022-08-21T00:52:31.999Z,69.50
2022-08-21T00:54:48.972Z,70.47
2022-08-21T00:57:06.917Z,68.17
2022-08-21T00:59:24.172Z,68.61
2022-08-21T01:01:42.293Z,68.89
2022-08-21T01:03:59.610Z,70.34
2022-08-21T01:06:16.704Z,71.19
2022-08-21T01:08:33.639Z,70.51
2022-08-21T01:10:51.125Z,71.51
2022-08-21T01:13:12.125Z,69.39
2022-08-21T01:15:30.538Z,70.74
2022-08-21T01:17:48.512Z,71.65
2022-08-21T01:20:06.605Z,70.25
2022-08-21T01:22:26.029Z,70.94
2022-08-21T01:24:44.365Z,69.23
2022-08-21T01:27:01.436Z,70.76
2022-08-21T01:29:18.730Z,70.09
2022-08-21T01:31:35.680Z,71.23
2022-08-21T01:33:52.935Z,71.18
2022-08-21T01:36:10.116Z,69.69
2022-08-21T01:38:27.399Z,69.89
2022-08-21T01:40:45.910Z,69.78
2022-08-21T01:43:03.193Z,70.98
2022-08-21T01:45:20.548Z,71.88
2022-08-21T01:47:37.641Z,72.22
2022-08-21T01:49:54.667Z,72.27
2022-08-21T01:52:12.061Z,72.33
2022-08-21T01:54:30.111Z,72.25
2022-08-21T01:56:49.849Z,71.85
2022-08-21T01:59:06.789Z,71.21
2022-08-21T02:01:23.853Z,70.81
2022-08-21T02:03:41.208Z,71.96
2022-08-21T02:05:58.452Z,71.14
2022-08-21T02:08:15.683Z,72.38
2022-08-21T02:10:33.512Z,72.70
2022-08-21T02:12:50.529Z,73.06
2022-08-21T02:15:07.642Z,71.85
2022-08-21T02:17:24.612Z,72.94
2022-08-21T02:19:41.952Z,72.70
2022-08-21T02:21:59.282Z,71.93
2022-08-21T02:24:16.657Z,71.59
2022-08-21T02:26:34.077Z,72.50
2022-08-21T02:28:51.226Z,72.42
2022-08-21T02:31:08.271Z,71.89
2022-08-21T02:33:25.574Z,72.20
2022-08-21T02:35:43.200Z,72.81
2022-08-21T02:38:00.241Z,73.49
2022-08-21T02:40:18.325Z,73.27
2022-08-21T02:42:37.748Z,72.91
2022-08-21T02:44:56.099Z,71.96
2022-08-21T02:47:13.065Z,72.48
2022-08-21T02:49:30.108Z,72.45
2022-08-21T02:51:47.250Z,72.82
2022-08-21T02:54:05.522Z,73.70
2022-08-21T02:56:22.655Z,73.12
2022-08-21T02:58:41.010Z,72.92
2022-08-21T03:00:58.018Z,73.26
2022-08-21T03:03:15.429Z,72.98
2022-08-21T03:05:32.582Z,72.92
2022-08-21T03:07:49.523Z,73.82
2022-08-21T03:10:06.521Z,74.05
2022-08-21T03:12:23.800Z,73.86
2022-08-21T03:14:43.027Z,74.75
2022-08-21T03:17:00.108Z,73.96
2022-08-21T03:19:17.195Z,73.99
2022-08-21T03:21:34.267Z,73.82
2022-08-21T03:23:51.605Z,73.04
2022-08-21T03:26:08.924Z,73.51
2022-08-21T03:28:26.156Z,74.50
2022-08-21T03:30:43.284Z,73.98
2022-08-21T03:33:01.704Z,74.06
2022-08-21T03:35:19.061Z,74.61
2022-08-21T03:37:36.141Z,74.80
2022-08-21T03:39:54.015Z,73.76
2022-08-21T03:42:11.340Z,74.57
2022-08-21T03:44:28.742Z,74.42
2022-08-21T03:46:46.083Z,74.23
2022-08-21T03:49:03.484Z,74.40
2022-08-21T03:51:20.807Z,74.68
2022-08-21T03:53:37.804Z,73.78
2022-08-21T03:55:55.094Z,74.46
2022-08-21T03:58:16.704Z,74.34
2022-08-21T04:00:34.572Z,74.83
2022-08-21T04:02:52.136Z,74.83
2022-08-21T04:05:09.340Z,74.64
2022-08-21T04:07:26.669Z,74.61
2022-08-21T04:09:44.001Z,75.05
2022-08-21T04:12:01.192Z,75.21
2022-08-21T04:14:18.326Z,75.40
2022-08-21T04:16:36.558Z,75.04
2022-08-21T04:18:53.894Z,74.97
2022-08-21T04:21:10.921Z,74.95
2022-08-21T04:23:28.204Z,74.86
2022-08-21T04:25:45.252Z,75.40
2022-08-21T04:28:02.794Z,74.31
2022-08-21T04:30:19.901Z,74.97
2022-08-21T04:32:38.125Z,75.19
2022-08-21T04:34:55.475Z,75.24
2022-08-21T04:37:13.440Z,75.75
2022-08-21T04:39:30.478Z,75.18
2022-08-21T04:41:48.780Z,75.70
2022-08-21T04:44:06.041Z,75.62
2022-08-21T04:46:23.075Z,75.49
2022-08-21T04:48:40.035Z,75.18
2022-08-21T04:50:57.054Z,75.26
2022-08-21T04:53:14.353Z,75.40
2022-08-21T04:55:31.385Z,75.38
2022-08-21T04:57:49.235Z,75.09
2022-08-21T05:00:07.814Z,75.47
2022-08-21T05:02:31.729Z,75.97
2022-08-21T05:04:50.589Z,75.73
2022-08-21T05:07:08.887Z,76.30
2022-08-21T05:09:26.114Z,75.84
2022-08-21T05:11:44.185Z,75.65
2022-08-21T05:14:01.187Z,75.42
2022-08-21T05:16:37.368Z,76.09
2022-08-21T05:18:54.873Z,75.84
2022-08-21T05:21:11.912Z,75.96
2022-08-21T05:23:29.244Z,75.88
2022-08-21T05:25:46.562Z,75.39
2022-08-21T05:28:05.835Z,75.47
2022-08-21T05:30:24.419Z,75.90
2022-08-21T05:32:41.465Z,76.46
2022-08-21T05:35:00.129Z,75.75
2022-08-21T05:37:17.415Z,75.88
2022-08-21T05:40:20.207Z,75.66
2022-08-21T05:42:11.918Z,75.93
2022-08-21T05:44:28.944Z,75.98
2022-08-21T05:46:47.292Z,76.18
2022-08-21T05:49:04.630Z,76.02
2022-08-21T05:51:22.870Z,75.83
2022-08-21T05:53:39.938Z,75.99
2022-08-21T05:55:57.211Z,76.02
2022-08-21T05:58:15.246Z,75.25
2022-08-21T06:00:32.204Z,76.18
2022-08-21T06:02:49.272Z,75.73
2022-08-21T06:05:06.304Z,76.03
2022-08-21T06:07:23.347Z,76.10
2022-08-21T06:09:40.252Z,75.80
2022-08-21T06:11:57.278Z,75.82
2022-08-21T06:14:14.616Z,74.64
2022-08-21T06:16:32.708Z,74.13
2022-08-21T06:18:50.466Z,74.96
2022-08-21T06:21:08.584Z,74.48
2022-08-21T06:23:33.119Z,73.06
2022-08-21T06:25:51.450Z,72.90
2022-08-21T06:28:08.667Z,73.82
2022-08-21T06:30:25.858Z,71.21
2022-08-21T06:32:43.886Z,71.58
2022-08-21T06:35:00.920Z,71.08
2022-08-21T06:37:18.282Z,71.60
2022-08-21T06:39:35.477Z,69.68
2022-08-21T06:41:53.510Z,70.09
2022-08-21T06:44:10.686Z,67.96
2022-08-21T06:46:27.952Z,68.67
2022-08-21T06:48:45.284Z,69.00
2022-08-21T06:51:02.254Z,67.65
2022-08-21T06:53:19.610Z,67.93
2022-08-21T06:55:37.018Z,67.26
2022-08-21T06:57:54.282Z,67.74
2022-08-21T07:00:11.576Z,67.28
2022-08-21T07:02:29.909Z,66.56
2022-08-21T07:04:46.952Z,66.51
2022-08-21T07:07:04.202Z,66.40
2022-08-21T07:09:24.498Z,66.55
2022-08-21T07:11:44.162Z,65.71
2022-08-21T07:14:04.729Z,65.57
2022-08-21T07:16:21.767Z,65.69
2022-08-21T07:18:38.863Z,65.24
2022-08-21T07:20:55.919Z,63.54
2022-08-21T07:23:13.177Z,62.65
2022-08-21T07:25:30.430Z,62.09
2022-08-21T07:27:47.685Z,62.30
2022-08-21T07:30:04.939Z,62.75
2022-08-21T07:32:22.047Z,63.29
2022-08-21T07:34:39.097Z,62.22
2022-08-21T07:36:56.134Z,62.58
2022-08-21T07:39:13.224Z,61.61
2022-08-21T07:41:30.274Z,61.54
2022-08-21T07:43:47.609Z,60.37
2022-08-21T07:46:05.173Z,60.16
2022-08-21T07:48:24.960Z,59.52
2022-08-21T07:50:42.038Z,59.10
2022-08-21T07:52:59.324Z,58.66
2022-08-21T07:55:16.692Z,58.53
2022-08-21T07:57:34.000Z,57.74
2022-08-21T07:59:51.018Z,57.27
2022-08-21T08:02:08.359Z,56.48
2022-08-21T08:04:26.663Z,56.66
2022-08-21T08:06:44.055Z,55.67
2022-08-21T08:09:01.960Z,54.69
2022-08-21T08:11:19.196Z,53.88
2022-08-21T08:13:36.535Z,55.20
2022-08-21T08:15:53.607Z,54.72
2022-08-21T08:18:10.853Z,52.62
2022-08-21T08:20:28.852Z,53.90
2022-08-21T08:22:50.263Z,53.82
2022-08-21T08:25:09.412Z,52.20
2022-08-21T08:27:26.764Z,52.34
2022-08-21T08:29:43.712Z,52.38
2022-08-21T08:32:01.032Z,50.86
2022-08-21T08:34:25.733Z,49.85
2022-08-21T08:36:44.337Z,48.23
2022-08-21T08:39:01.414Z,47.08
2022-08-21T08:41:18.456Z,46.96
2022-08-21T08:43:35.406Z,47.93
2022-08-21T08:45:52.673Z,46.64
2022-08-21T08:48:14.254Z,46.65
2022-08-21T08:50:31.834Z,44.38
2022-08-21T08:52:48.855Z,45.04
2022-08-21T08:55:06.094Z,45.38
2022-08-21T08:57:23.164Z,43.87
2022-08-21T08:59:40.098Z,45.30
2022-08-21T09:01:57.999Z,45.42
2022-08-21T09:04:15.291Z,44.82
2022-08-21T09:06:32.159Z,44.34
2022-08-21T09:08:49.392Z,44.74
2022-08-21T09:11:06.396Z,43.00
2022-08-21T09:13:23.414Z,44.68
2022-08-21T09:15:40.647Z,45.04
2022-08-21T09:17:57.675Z,44.45
2022-08-21T09:20:14.711Z,44.24
2022-08-21T09:22:31.744Z,44.29
2022-08-21T09:24:51.979Z,43.94
2022-08-21T09:27:09.148Z,43.87
2022-08-21T09:29:27.425Z,43.32
2022-08-21T09:31:45.580Z,42.71
2022-08-21T09:34:03.912Z,41.41
2022-08-21T09:36:21.210Z,41.94
2022-08-21T09:38:38.517Z,41.60
2022-08-21T09:40:55.496Z,41.73
2022-08-21T09:43:13.773Z,41.64
2022-08-21T09:45:33.779Z,40.13
2022-08-21T09:47:51.792Z,39.69
2022-08-21T09:50:09.069Z,38.65
2022-08-21T09:52:27.143Z,39.53
2022-08-21T09:54:44.442Z,39.99
2022-08-21T09:57:01.499Z,40.24
2022-08-21T09:59:18.500Z,39.26
2022-08-21T10:01:36.461Z,39.48
2022-08-21T10:03:53.449Z,38.85
2022-08-21T10:06:10.484Z,39.23
2022-08-21T10:08:27.573Z,38.64
2022-08-21T10:10:46.147Z,39.29
2022-08-21T10:13:03.228Z,40.56
2022-08-21T10:15:20.535Z,40.47
2022-08-21T10:17:37.599Z,40.90
2022-08-21T10:19:55.583Z,41.38
2022-08-21T10:22:13.617Z,39.98
2022-08-21T10:24:32.044Z,37.97
2022-08-21T10:26:49.217Z,38.88
2022-08-21T10:29:06.264Z,38.96
2022-08-21T10:31:23.608Z,38.81
2022-08-21T10:33:40.644Z,39.11
2022-08-21T10:35:58.725Z,38.61
2022-08-21T10:38:39.394Z,37.64
2022-08-21T10:40:54.090Z,36.82
2022-08-21T10:43:12.190Z,37.72
2022-08-21T10:45:29.599Z,36.95
2022-08-21T10:47:47.134Z,36.45
2022-08-21T10:50:04.321Z,37.11
2022-08-21T10:52:22.643Z,36.87
2022-08-21T10:54:40.557Z,36.15
2022-08-21T10:56:57.538Z,36.43
2022-08-21T10:59:17.411Z,37.03
2022-08-21T11:01:34.474Z,37.30
2022-08-21T11:03:54.691Z,37.29
2022-08-21T11:06:14.159Z,36.96
2022-08-21T11:08:31.249Z,37.36
2022-08-21T11:10:57.738Z,38.57
2022-08-21T11:13:17.488Z,39.10
2022-08-21T11:15:34.830Z,39.07
2022-08-21T11:17:54.589Z,39.04
2022-08-21T11:20:11.485Z,38.55
2022-08-21T11:22:28.528Z,38.45
2022-08-21T11:24:45.627Z,37.99
2022-08-21T11:27:02.895Z,38.36
2022-08-21T11:29:19.973Z,37.36
2022-08-21T11:31:37.430Z,36.75
2022-08-21T11:33:55.563Z,36.06
2022-08-21T11:36:12.758Z,37.03
2022-08-21T11:38:31.676Z,36.87
2022-08-21T11:40:48.805Z,36.74
2022-08-21T11:43:05.730Z,36.93
2022-08-21T11:45:23.199Z,36.20
2022-08-21T11:47:44.652Z,36.69
2022-08-21T11:50:03.210Z,36.61
2022-08-21T11:52:21.106Z,37.65
2022-08-21T11:54:38.404Z,36.71
2022-08-21T11:56:55.471Z,35.06
2022-08-21T11:59:13.491Z,35.58
2022-08-21T12:01:36.789Z,36.06
2022-08-21T12:03:54.796Z,36.04
2022-08-21T12:06:12.163Z,37.02
2022-08-21T12:08:29.108Z,35.12
2022-08-21T12:10:46.683Z,34.73
2022-08-21T12:13:03.623Z,35.29
2022-08-21T12:15:22.902Z,35.47
2022-08-21T12:17:39.969Z,34.54
2022-08-21T12:19:57.448Z,34.06
2022-08-21T12:22:16.418Z,34.20
2022-08-21T12:24:33.869Z,33.88
2022-08-21T12:26:51.027Z,32.84
2022-08-21T12:29:08.255Z,32.86
2022-08-21T12:31:25.336Z,33.05
2022-08-21T12:33:42.391Z,32.34
2022-08-21T12:36:00.709Z,32.95
2022-08-21T12:38:17.679Z,34.50
2022-08-21T12:40:34.752Z,33.92
2022-08-21T12:43:00.344Z,33.48
2022-08-21T12:45:17.576Z,32.92
2022-08-21T12:47:34.970Z,32.29
2022-08-21T12:49:52.976Z,33.34
2022-08-21T12:52:09.951Z,32.94
2022-08-21T12:54:27.086Z,33.10
2022-08-21T12:56:44.160Z,32.60
2022-08-21T12:59:01.477Z,32.24
2022-08-21T13:01:18.779Z,32.46
2022-08-21T13:03:36.025Z,33.12
2022-08-21T13:05:53.238Z,32.68
2022-08-21T13:08:10.171Z,31.89
2022-08-21T13:10:27.225Z,32.81
2022-08-21T13:12:44.294Z,32.72
2022-08-21T13:15:03.288Z,33.66
2022-08-21T13:17:23.421Z,32.93
2022-08-21T13:19:42.995Z,33.05
2022-08-21T13:22:00.040Z,32.41
2022-08-21T13:24:39.103Z,32.21
2022-08-21T13:26:54.261Z,32.40
2022-08-21T13:29:11.556Z,32.28
2022-08-21T13:31:30.664Z,31.79
2022-08-21T13:33:47.557Z,31.87
2022-08-21T13:36:04.534Z,31.54
2022-08-21T13:38:27.299Z,31.89
2022-08-21T13:40:44.753Z,31.73
2022-08-21T13:43:02.689Z,30.95
2022-08-21T13:45:19.961Z,31.16
2022-08-21T13:47:36.931Z,30.69
2022-08-21T13:49:58.976Z,31.66
2022-08-21T13:52:17.381Z,31.85
2022-08-21T13:54:34.462Z,31.08
2022-08-21T13:56:51.792Z,31.27
2022-08-21T13:59:09.144Z,31.20
2022-08-21T14:01:26.249Z,31.36
2022-08-21T14:03:43.547Z,31.72
2022-08-21T14:06:01.488Z,30.43
2022-08-21T14:08:18.857Z,30.78
2022-08-21T14:10:37.892Z,29.82
2022-08-21T14:12:55.257Z,30.39
2022-08-21T14:15:13.240Z,30.55
2022-08-21T14:17:33.782Z,30.10
2022-08-21T14:19:50.817Z,31.03
2022-08-21T14:22:07.958Z,30.81
2022-08-21T14:24:24.874Z,30.75
2022-08-21T14:26:41.951Z,30.22
2022-08-21T14:28:59.236Z,31.19
2022-08-21T14:31:18.733Z,30.62
2022-08-21T14:33:36.547Z,30.32
2022-08-21T14:35:54.612Z,30.00
2022-08-21T14:38:11.874Z,30.24
2022-08-21T14:40:28.910Z,31.46
2022-08-21T14:42:45.934Z,29.92
2022-08-21T14:45:03.179Z,30.10
2022-08-21T14:47:20.231Z,31.43
2022-08-21T14:49:37.242Z,31.17
2022-08-21T14:51:54.687Z,30.72
2022-08-21T14:54:11.885Z,31.63
2022-08-21T14:56:29.946Z,31.22
2022-08-21T14:58:46.964Z,31.83
2022-08-21T15:01:05.125Z,30.76
2022-08-21T15:03:22.259Z,30.81
2022-08-21T15:05:39.280Z,31.32
2022-08-21T15:07:56.579Z,30.87
2022-08-21T15:10:13.820Z,30.02
2022-08-21T15:12:30.861Z,30.35
2022-08-21T15:14:47.917Z,29.45
2022-08-21T15:17:04.897Z,29.67
2022-08-21T15:19:21.914Z,29.92
2022-08-21T15:21:38.862Z,30.30
2022-08-21T15:23:55.929Z,30.06
2022-08-21T15:26:13.228Z,29.34
2022-08-21T15:28:31.612Z,29.94
2022-08-21T15:30:49.230Z,30.26
2022-08-21T15:33:06.582Z,30.18
2022-08-21T15:35:24.398Z,31.42
2022-08-21T15:37:42.164Z,31.60
2022-08-21T15:39:59.611Z,31.24
2022-08-21T15:42:16.864Z,31.36
2022-08-21T15:44:34.909Z,31.03
2022-08-21T15:46:52.984Z,30.45
2022-08-21T15:49:10.182Z,30.27
2022-08-21T15:51:27.600Z,30.89
2022-08-21T15:53:45.670Z,30.55
2022-08-21T15:56:04.758Z,30.58
2022-08-21T15:58:22.790Z,30.79
2022-08-21T16:00:40.027Z,30.72
2022-08-21T16:02:59.220Z,31.83
2022-08-21T16:05:16.635Z,32.19
2022-08-21T16:07:34.724Z,31.86
2022-08-21T16:09:51.791Z,32.68
2022-08-21T16:12:08.859Z,32.26
2022-08-21T16:14:26.156Z,31.54
2022-08-21T16:16:45.351Z,30.81
2022-08-21T16:19:02.586Z,32.36
2022-08-21T16:21:20.542Z,31.84
2022-08-21T16:23:39.601Z,31.52
2022-08-21T16:25:56.884Z,32.39
2022-08-21T16:28:14.437Z,33.06
2022-08-21T16:30:32.784Z,31.68
2022-08-21T16:32:50.009Z,31.91
2022-08-21T16:35:07.973Z,31.71
2022-08-21T16:37:26.004Z,32.65
2022-08-21T16:39:43.357Z,32.93
2022-08-21T16:42:00.418Z,32.85
2022-08-21T16:44:17.678Z,32.87
2022-08-21T16:46:35.023Z,32.60
2022-08-21T16:48:51.955Z,33.17
2022-08-21T16:51:09.212Z,32.50
2022-08-21T16:53:28.076Z,32.46
2022-08-21T16:55:45.350Z,33.04
2022-08-21T16:58:02.387Z,33.08
2022-08-21T17:00:19.355Z,32.80
2022-08-21T17:02:36.413Z,32.49
2022-08-21T17:04:53.428Z,32.36
2022-08-21T17:07:10.560Z,33.11
2022-08-21T17:09:27.508Z,32.57
2022-08-21T17:11:46.170Z,33.16
2022-08-21T17:14:04.176Z,33.87
2022-08-21T17:16:22.270Z,34.11
2022-08-21T17:18:39.442Z,34.26
2022-08-21T17:20:56.476Z,34.46
2022-08-21T17:23:14.479Z,34.20
2022-08-21T17:25:32.737Z,34.43
2022-08-21T17:27:51.044Z,35.09
2022-08-21T17:30:08.379Z,36.14
2022-08-21T17:32:26.669Z,36.25
2022-08-21T17:34:43.727Z,37.14
2022-08-21T17:37:00.763Z,36.20
2022-08-21T17:39:22.515Z,36.46
2022-08-21T17:41:43.727Z,37.03
2022-08-21T17:44:01.055Z,37.11
2022-08-21T17:46:18.116Z,37.05
2022-08-21T17:48:35.185Z,36.26
2022-08-21T17:50:52.595Z,37.33
2022-08-21T17:53:11.031Z,38.29
2022-08-21T17:55:30.480Z,38.85
2022-08-21T17:57:47.709Z,38.55
2022-08-21T18:00:05.819Z,39.55
2022-08-21T18:02:22.756Z,39.09
2022-08-21T18:04:39.695Z,40.15
2022-08-21T18:06:58.599Z,41.07
2022-08-21T18:09:20.434Z,39.92
2022-08-21T18:11:37.550Z,41.41
2022-08-21T18:13:55.006Z,40.75
2022-08-21T18:16:12.044Z,41.05
2022-08-21T18:18:29.368Z,41.39
2022-08-21T18:20:47.621Z,42.25
2022-08-21T18:23:04.665Z,42.72
2022-08-21T18:25:21.995Z,42.40
2022-08-21T18:27:40.382Z,41.73
2022-08-21T18:29:57.751Z,42.65
2022-08-21T18:32:30.495Z,42.20
2022-08-21T18:34:48.354Z,42.13
2022-08-21T18:37:05.447Z,42.74
2022-08-21T18:39:38.238Z,43.10
2022-08-21T18:41:55.430Z,43.20
2022-08-21T18:44:12.488Z,43.74
2022-08-21T18:46:29.791Z,43.80
2022-08-21T18:48:47.214Z,45.09
2022-08-21T18:51:05.504Z,44.89
2022-08-21T18:53:27.946Z,44.68
2022-08-21T18:55:46.208Z,45.36
2022-08-21T18:58:07.385Z,45.95
2022-08-21T19:00:25.747Z,45.56
2022-08-21T19:02:44.075Z,45.51
2022-08-21T19:07:18.225Z,46.80
2022-08-21T19:09:36.639Z,47.11
2022-08-21T19:11:53.666Z,47.45
2022-08-21T19:14:13.068Z,46.86
2022-08-21T19:16:32.912Z,47.06
2022-08-21T19:18:51.003Z,47.39
2022-08-21T19:21:08.092Z,47.89
2022-08-21T19:23:29.243Z,47.77
2022-08-21T19:25:46.959Z,47.60
2022-08-21T19:28:10.897Z,47.73
2022-08-21T19:30:28.936Z,46.98
2022-08-21T19:32:45.927Z,48.54
2022-08-21T19:35:05.379Z,48.91
2022-08-21T19:37:23.053Z,47.42
2022-08-21T19:39:45.047Z,47.17
2022-08-21T19:42:05.848Z,48.20
2022-08-21T19:44:27.277Z,48.13
2022-08-21T19:46:45.177Z,47.64
2022-08-21T19:49:02.312Z,48.79
2022-08-21T19:51:19.526Z,47.89
2022-08-21T19:53:37.001Z,48.70
2022-08-21T19:55:54.275Z,49.45
2022-08-21T19:58:12.462Z,48.19
2022-08-21T20:00:31.231Z,49.60
2022-08-21T20:02:49.250Z,48.28
2022-08-21T20:05:06.342Z,50.48
2022-08-21T20:07:26.960Z,49.91
2022-08-21T20:09:44.151Z,49.90
2022-08-21T20:12:04.140Z,50.19
2022-08-21T20:14:23.707Z,51.10
2022-08-21T20:16:41.437Z,50.32
2022-08-21T20:18:58.712Z,50.80
2022-08-21T20:21:15.627Z,51.05
2022-08-21T20:23:34.176Z,50.87
2022-08-21T20:25:51.371Z,51.19
2022-08-21T20:28:08.412Z,50.80
2022-08-21T20:30:25.743Z,51.12
2022-08-21T20:32:43.473Z,51.56
2022-08-21T20:35:01.895Z,51.94
2022-08-21T20:37:22.292Z,51.90
2022-08-21T20:39:56.139Z,52.51
2022-08-21T20:42:14.435Z,52.36
2022-08-21T20:44:31.909Z,52.80
2022-08-21T20:49:26.587Z,52.86
2022-08-21T20:51:44.260Z,51.86
2022-08-21T20:54:01.469Z,51.46
2022-08-21T20:56:19.061Z,53.50
2022-08-21T20:58:36.514Z,53.47
2022-08-21T21:00:55.062Z,53.87
2022-08-21T21:03:14.572Z,53.08
2022-08-21T21:05:31.624Z,53.54
2022-08-21T21:07:49.058Z,52.88
2022-08-21T21:10:06.412Z,54.21
2022-08-21T21:12:28.136Z,53.07
2022-08-21T21:14:47.065Z,53.63
2022-08-21T21:17:04.408Z,54.31
2022-08-21T21:19:21.795Z,53.20
2022-08-21T21:21:39.070Z,54.06
2022-08-21T21:23:56.182Z,53.58
2022-08-21T21:26:15.200Z,53.40
2022-08-21T21:28:32.227Z,52.94
2022-08-21T21:30:57.769Z,53.04
2022-08-21T21:33:15.272Z,53.84
2022-08-21T21:35:36.449Z,54.09
2022-08-21T21:37:55.330Z,54.04
2022-08-21T21:40:12.302Z,53.70
2022-08-21T21:42:30.248Z,53.85
2022-08-21T21:44:47.768Z,54.16
2022-08-21T21:47:05.022Z,53.05
2022-08-21T21:49:23.026Z,53.57
2022-08-21T21:51:42.005Z,53.25
2022-08-21T21:53:59.439Z,54.37
2022-08-21T21:56:16.542Z,53.94
2022-08-21T21:58:34.547Z,53.49
2022-08-21T22:00:53.398Z,53.71
2022-08-21T22:03:13.211Z,53.97
2022-08-21T22:05:30.771Z,53.59
2022-08-21T22:07:48.126Z,54.64
2022-08-21T22:10:19.639Z,54.19
2022-08-21T22:12:49.818Z,54.17
2022-08-21T22:15:07.547Z,54.43
2022-08-21T22:17:25.880Z,55.18
2022-08-21T22:19:43.152Z,55.06
2022-08-21T22:22:02.482Z,55.49
2022-08-21T22:24:21.898Z,54.95
2022-08-21T22:26:38.934Z,55.26
2022-08-21T22:29:05.395Z,55.43
2022-08-21T22:31:22.708Z,55.91
2022-08-21T22:33:41.074Z,55.66
2022-08-21T22:35:58.460Z,55.43
2022-08-21T22:38:15.849Z,54.64
2022-08-21T22:40:34.953Z,55.86
2022-08-21T22:42:52.655Z,55.96
2022-08-21T22:45:12.071Z,56.08
2022-08-21T22:47:29.854Z,56.94
2022-08-21T22:49:47.086Z,56.73
2022-08-21T22:52:04.945Z,56.53
2022-08-21T22:54:22.416Z,56.65
2022-08-21T22:56:39.491Z,56.46
2022-08-21T22:58:59.974Z,56.90
2022-08-21T23:01:19.275Z,56.22
2022-08-21T23:03:36.930Z,55.94
2022-08-21T23:05:55.404Z,55.76
2022-08-21T23:08:12.449Z,55.18
2022-08-21T23:10:30.353Z,54.78
2022-08-21T23:12:49.000Z,54.59
2022-08-21T23:15:09.155Z,53.98
2022-08-21T23:17:27.088Z,53.79
2022-08-21T23:19:46.077Z,53.84
2022-08-21T23:22:05.965Z,53.32
2022-08-21T23:24:26.539Z,53.23
2022-08-21T23:26:46.839Z,53.49
2022-08-21T23:29:09.313Z,53.35
2022-08-21T23:31:26.549Z,53.36
2022-08-21T23:33:43.727Z,53.74
2022-08-21T23:36:00.738Z,53.80
2022-08-21T23:38:19.906Z,53.60
2022-08-21T23:40:37.129Z,54.01
2022-08-21T23:42:54.419Z,53.95
2022-08-21T23:45:14.175Z,54.08
2022-08-21T23:47:32.266Z,54.12
2022-08-21T23:49:49.386Z,53.97
2022-08-21T23:52:11.032Z,53.79
2022-08-21T23:54:28.373Z,54.87
2022-08-21T23:56:45.448Z,54.80
2022-08-21T23:59:02.600Z,54.97
